Time;durP1;ratioP1;P1;durP2;ratioP2;P2;SDS_P1;SDS_P2;PMS_P1;PMS_P2;Temp;Humidity;BMP_temperature;BMP_pressure;BME280_temperature;BME280_humidity;BME280_pressure;Samples;Min_cycle;Max_cycle;Signal;HPM_P1;HPM_P2
2023/06/21 00:00:13;;;;;;;10.77;9.80;;;22.20;99.90;;;;;;6156997;23;20814;-85
2023/06/21 00:02:41;;;;;;;11.43;10.43;;;22.10;99.90;;;;;;6162619;23;20451;-84
2023/06/21 00:05:08;;;;;;;11.00;10.00;;;22.10;99.90;;;;;;6146712;23;20468;-84
2023/06/21 00:07:37;;;;;;;11.70;10.70;;;22.00;99.90;;;;;;6157801;23;20958;-84
2023/06/21 00:10:07;;;;;;;11.80;10.23;;;22.00;99.90;;;;;;6176744;23;20925;-84
2023/06/21 00:12:35;;;;;;;11.10;10.20;;;21.90;99.90;;;;;;6178981;23;20457;-84
2023/06/21 00:15:05;;;;;;;11.80;10.90;;;21.90;99.90;;;;;;6175859;23;20440;-84
2023/06/21 00:17:32;;;;;;;13.10;11.80;;;21.80;99.90;;;;;;6178683;23;20439;-84
2023/06/21 00:19:59;;;;;;;11.13;10.13;;;21.80;99.90;;;;;;6168168;23;20435;-84
2023/06/21 00:22:28;;;;;;;11.03;10.13;;;21.80;99.90;;;;;;6176636;23;20491;-84
2023/06/21 00:24:57;;;;;;;11.03;9.90;;;21.80;99.90;;;;;;6176727;23;20443;-84
2023/06/21 00:27:24;;;;;;;11.40;10.30;;;21.90;99.90;;;;;;6179011;23;20461;-85
2023/06/21 00:29:51;;;;;;;11.00;10.10;;;21.90;99.90;;;;;;6177284;23;20435;-84
2023/06/21 00:32:19;;;;;;;11.33;10.43;;;21.90;99.90;;;;;;6165701;23;20544;-84
2023/06/21 00:34:47;;;;;;;11.67;10.70;;;21.90;99.90;;;;;;6172161;23;20464;-84
2023/06/21 00:37:14;;;;;;;11.60;10.70;;;21.90;99.90;;;;;;6166913;23;20455;-84
2023/06/21 00:39:41;;;;;;;11.77;10.83;;;21.90;99.90;;;;;;6172899;23;20442;-84
2023/06/21 00:42:09;;;;;;;11.93;10.77;;;21.90;99.90;;;;;;6174571;23;20491;-85
2023/06/21 00:44:36;;;;;;;11.10;10.17;;;21.90;99.90;;;;;;6175515;23;21010;-85
2023/06/21 00:47:04;;;;;;;10.70;9.80;;;21.90;99.90;;;;;;6171328;23;20443;-85
2023/06/21 00:49:33;;;;;;;11.30;10.30;;;21.80;99.90;;;;;;6176124;23;21009;-84
2023/06/21 00:52:00;;;;;;;11.20;10.10;;;21.80;99.90;;;;;;6176235;23;20456;-85
2023/06/21 00:54:30;;;;;;;10.57;9.77;;;21.80;99.90;;;;;;6163736;23;20435;-85
2023/06/21 00:56:58;;;;;;;10.53;9.53;;;21.90;99.90;;;;;;6168369;23;20432;-85
2023/06/21 00:59:27;;;;;;;10.83;9.93;;;21.90;99.90;;;;;;6170412;23;20837;-85
2023/06/21 01:01:55;;;;;;;11.90;10.60;;;21.90;99.90;;;;;;6179562;23;20858;-85
2023/06/21 01:04:23;;;;;;;10.73;9.83;;;21.90;99.90;;;;;;6179519;23;20534;-85
2023/06/21 01:07:11;;;;;;;11.60;10.60;;;21.90;99.90;;;;;;6179314;23;20435;-84
2023/06/21 01:09:49;;;;;;;12.10;10.67;;;21.90;99.90;;;;;;6170181;23;20558;-85
2023/06/21 01:12:28;;;;;;;11.90;10.87;;;21.90;99.90;;;;;;6160877;23;20555;-85
2023/06/21 01:15:01;;;;;;;11.50;10.47;;;21.90;99.90;;;;;;6178365;23;20964;-85
2023/06/21 01:17:33;;;;;;;11.37;10.30;;;21.90;99.90;;;;;;6178783;23;20435;-85
2023/06/21 01:20:08;;;;;;;12.33;11.30;;;21.60;99.90;;;;;;6178400;23;20438;-85
2023/06/21 01:22:53;;;;;;;12.80;11.70;;;21.80;99.90;;;;;;6179879;23;20480;-85
2023/06/21 01:25:30;;;;;;;12.50;11.47;;;21.70;99.90;;;;;;6175278;23;20439;-85
2023/06/21 01:28:11;;;;;;;12.50;11.60;;;21.70;99.90;;;;;;6162495;23;20451;-85
2023/06/21 01:30:41;;;;;;;13.10;12.10;;;21.70;99.90;;;;;;6178906;23;20853;-85
2023/06/21 01:33:09;;;;;;;12.30;11.30;;;21.60;99.90;;;;;;6180254;23;20459;-85
2023/06/21 01:35:36;;;;;;;12.90;11.63;;;21.60;99.90;;;;;;6178823;23;21162;-85
2023/06/21 01:38:03;;;;;;;12.43;11.23;;;21.60;99.90;;;;;;6170494;23;20440;-85
2023/06/21 01:40:30;;;;;;;11.50;10.80;;;21.60;99.90;;;;;;6178286;23;20443;-85
2023/06/21 01:42:57;;;;;;;12.90;11.10;;;21.60;99.90;;;;;;6178480;23;20535;-85
2023/06/21 01:45:25;;;;;;;12.40;11.40;;;21.60;99.90;;;;;;6165051;23;20436;-85
2023/06/21 01:47:54;;;;;;;13.13;12.10;;;21.60;99.90;;;;;;6177005;23;20491;-85
2023/06/21 01:50:23;;;;;;;12.93;11.73;;;21.60;99.90;;;;;;6178831;23;20507;-85
2023/06/21 01:52:51;;;;;;;12.63;11.53;;;21.60;99.90;;;;;;6177794;23;20460;-85
2023/06/21 01:55:20;;;;;;;13.73;12.53;;;21.60;99.90;;;;;;6176339;23;20816;-85
2023/06/21 01:57:48;;;;;;;13.43;12.27;;;21.70;99.90;;;;;;6174780;23;20493;-85
2023/06/21 02:00:17;;;;;;;13.63;12.63;;;21.60;99.90;;;;;;6162977;23;20795;-85
2023/06/21 02:02:49;;;;;;;13.30;12.10;;;21.60;99.90;;;;;;6177132;23;20451;-86
2023/06/21 02:05:19;;;;;;;13.57;12.43;;;21.60;99.90;;;;;;6178882;23;20439;-85
2023/06/21 02:07:47;;;;;;;13.93;12.80;;;21.50;99.90;;;;;;6178573;23;20952;-86
2023/06/21 02:10:18;;;;;;;13.57;12.37;;;21.50;99.90;;;;;;6174698;23;20474;-85
2023/06/21 02:12:48;;;;;;;13.20;12.00;;;21.10;99.90;;;;;;6178744;23;20455;-85
2023/06/21 02:15:16;;;;;;;14.10;13.00;;;21.40;99.90;;;;;;6176814;23;20426;-85
2023/06/21 02:17:48;;;;;;;15.40;14.10;;;21.20;99.90;;;;;;6168066;23;21165;-86
2023/06/21 02:20:16;;;;;;;15.27;14.00;;;21.00;99.90;;;;;;6174217;23;20445;-85
2023/06/21 02:22:45;;;;;;;15.63;14.23;;;20.90;99.90;;;;;;6176058;23;20468;-85
2023/06/21 02:25:13;;;;;;;15.07;13.87;;;20.80;99.90;;;;;;6178384;23;20514;-85
2023/06/21 02:27:40;;;;;;;17.00;15.37;;;20.80;99.90;;;;;;6177792;23;20521;-86
2023/06/21 02:30:09;;;;;;;16.00;14.80;;;20.80;99.90;;;;;;6174839;23;20462;-87
2023/06/21 02:32:36;;;;;;;17.40;15.90;;;20.90;99.90;;;;;;6169103;23;20513;-88
2023/06/21 02:35:04;;;;;;;16.60;15.30;;;20.90;99.90;;;;;;6162066;23;21054;-87
2023/06/21 02:37:30;;;;;;;16.50;15.23;;;20.90;99.90;;;;;;6169620;23;20522;-88
2023/06/21 02:40:04;;;;;;;16.53;15.23;;;20.90;99.90;;;;;;6179112;23;21008;-87
2023/06/21 02:42:32;;;;;;;17.17;15.67;;;20.80;99.90;;;;;;6186176;23;20471;-88
2023/06/21 02:44:59;;;;;;;14.80;13.70;;;20.80;99.90;;;;;;6174239;23;20439;-88
2023/06/21 02:47:26;;;;;;;16.00;14.70;;;20.80;99.90;;;;;;6179128;23;20443;-88
2023/06/21 02:49:53;;;;;;;16.10;14.73;;;20.80;99.90;;;;;;6170929;23;21029;-87
2023/06/21 02:52:20;;;;;;;16.80;15.40;;;20.80;99.90;;;;;;6162660;23;20489;-87
2023/06/21 02:54:47;;;;;;;15.17;13.87;;;20.80;99.90;;;;;;6171868;23;20440;-88
2023/06/21 02:57:15;;;;;;;14.30;13.30;;;20.70;99.90;;;;;;6178708;23;20528;-88
2023/06/21 02:59:42;;;;;;;16.13;14.63;;;20.70;99.90;;;;;;6174885;23;20443;-87
2023/06/21 03:02:09;;;;;;;15.13;13.83;;;20.70;99.90;;;;;;6176664;23;20545;-87
2023/06/21 03:04:37;;;;;;;15.37;14.07;;;20.70;99.90;;;;;;6179092;23;20554;-87
2023/06/21 03:07:05;;;;;;;15.23;14.13;;;20.70;99.90;;;;;;6157546;23;20428;-87
2023/06/21 03:09:32;;;;;;;15.10;14.00;;;20.70;99.90;;;;;;6167210;23;20471;-87
2023/06/21 03:12:01;;;;;;;16.23;14.83;;;20.70;99.90;;;;;;6178391;23;21054;-87
2023/06/21 03:14:29;;;;;;;15.20;14.03;;;20.70;99.90;;;;;;6177972;23;20445;-88
2023/06/21 03:16:56;;;;;;;15.40;14.07;;;20.60;99.90;;;;;;6172456;23;20523;-88
2023/06/21 03:19:24;;;;;;;16.63;15.13;;;20.60;99.90;;;;;;6178255;23;21005;-88
2023/06/21 03:21:51;;;;;;;15.20;13.90;;;20.60;99.90;;;;;;6175020;23;20516;-88
2023/06/21 03:24:18;;;;;;;16.20;15.00;;;20.60;99.90;;;;;;6162915;23;20539;-87
2023/06/21 03:26:45;;;;;;;15.67;14.17;;;20.70;99.90;;;;;;6172700;23;20950;-89
2023/06/21 03:29:12;;;;;;;17.97;16.40;;;20.70;99.90;;;;;;6171588;23;20513;-87
2023/06/21 03:31:40;;;;;;;16.57;15.33;;;20.80;99.90;;;;;;6170684;23;20455;-73
2023/06/21 03:34:08;;;;;;;15.90;14.70;;;20.70;99.90;;;;;;6164040;23;20442;-74
2023/06/21 03:36:36;;;;;;;15.40;14.10;;;20.80;99.90;;;;;;6177748;23;20496;-73
2023/06/21 03:39:03;;;;;;;15.87;14.47;;;20.80;99.90;;;;;;6161411;23;20493;-75
2023/06/21 03:41:30;;;;;;;14.97;13.87;;;20.70;99.90;;;;;;6163887;23;20454;-75
2023/06/21 03:43:57;;;;;;;17.00;15.53;;;20.60;99.90;;;;;;6175890;23;20515;-76
2023/06/21 03:46:24;;;;;;;17.80;16.10;;;20.60;99.90;;;;;;6177523;23;20437;-73
2023/06/21 03:48:53;;;;;;;16.70;15.33;;;20.70;99.90;;;;;;6170842;23;20475;-89
2023/06/21 03:51:20;;;;;;;16.13;15.00;;;20.60;99.90;;;;;;6174265;23;20516;-83
2023/06/21 03:53:47;;;;;;;14.60;13.33;;;20.50;99.90;;;;;;6174054;23;20537;-87
2023/06/21 03:56:14;;;;;;;14.20;13.03;;;20.40;99.90;;;;;;6162578;23;20840;-84
2023/06/21 03:58:42;;;;;;;12.10;10.90;;;20.10;99.90;;;;;;6161497;23;20444;-85
2023/06/21 04:01:09;;;;;;;11.87;10.87;;;20.00;99.90;;;;;;6165468;23;20459;-85
2023/06/21 04:03:36;;;;;;;11.93;11.00;;;19.90;99.90;;;;;;6159027;23;20443;-84
2023/06/21 04:06:05;;;;;;;11.10;10.30;;;19.80;99.90;;;;;;6172628;23;20499;-75
2023/06/21 04:08:31;;;;;;;12.27;11.00;;;19.70;99.90;;;;;;6171944;23;20428;-89
2023/06/21 04:10:59;;;;;;;12.93;9.97;;;19.70;99.90;;;;;;6184312;23;20482;-90
2023/06/21 04:13:26;;;;;;;11.47;10.47;;;19.70;99.90;;;;;;6195415;23;20439;-88
2023/06/21 04:15:53;;;;;;;10.97;10.07;;;19.60;99.90;;;;;;6192353;23;20463;-87
2023/06/21 04:18:20;;;;;;;10.90;9.97;;;19.70;99.90;;;;;;6188740;23;20523;-87
2023/06/21 04:20:49;;;;;;;12.40;11.40;;;19.90;99.90;;;;;;6182179;23;20860;-87
2023/06/21 04:23:17;;;;;;;13.10;10.70;;;19.80;99.90;;;;;;6179296;23;20431;-89
2023/06/21 04:25:44;;;;;;;11.00;10.00;;;19.90;99.90;;;;;;6171865;23;20538;-88
2023/06/21 04:28:11;;;;;;;11.53;10.40;;;20.00;99.90;;;;;;6173382;23;20428;-88
2023/06/21 04:30:38;;;;;;;11.60;10.50;;;20.10;99.90;;;;;;6178552;23;20474;-87
2023/06/21 04:33:06;;;;;;;12.30;11.10;;;20.20;99.90;;;;;;6178564;23;20520;-85
2023/06/21 04:35:33;;;;;;;10.90;9.90;;;20.30;99.90;;;;;;6167260;23;20461;-86
2023/06/21 04:38:01;;;;;;;10.40;9.67;;;20.30;99.90;;;;;;6147498;23;21047;-82
2023/06/21 04:40:30;;;;;;;11.17;10.07;;;20.40;99.90;;;;;;6155609;23;20446;-82
2023/06/21 04:42:58;;;;;;;10.60;9.50;;;20.50;99.90;;;;;;6162062;23;20451;-85
2023/06/21 04:45:26;;;;;;;11.50;10.57;;;20.60;99.90;;;;;;6163968;23;20438;-84
2023/06/21 04:47:57;;;;;;;11.53;10.37;;;20.60;99.90;;;;;;6150744;23;20441;-85
2023/06/21 04:50:25;;;;;;;11.10;10.30;;;20.70;99.90;;;;;;6140662;23;21076;-85
2023/06/21 04:52:57;;;;;;;11.77;10.63;;;20.70;99.90;;;;;;6133952;23;20985;-85
2023/06/21 04:55:25;;;;;;;12.13;11.13;;;20.60;99.90;;;;;;6159328;23;20431;-76
2023/06/21 04:57:54;;;;;;;11.87;10.90;;;20.60;99.90;;;;;;6156398;23;20458;-86
2023/06/21 05:00:21;;;;;;;11.23;10.30;;;20.60;99.90;;;;;;6157533;23;20524;-86
2023/06/21 05:02:48;;;;;;;12.03;10.90;;;20.60;99.90;;;;;;6165482;23;20470;-83
2023/06/21 05:05:16;;;;;;;11.57;10.57;;;20.50;99.90;;;;;;6167782;23;20436;-86
2023/06/21 05:07:43;;;;;;;13.63;12.33;;;20.50;99.90;;;;;;6163009;23;20433;-86
2023/06/21 05:10:10;;;;;;;11.13;10.33;;;20.50;99.90;;;;;;6162719;23;20572;-86
2023/06/21 05:12:38;;;;;;;12.17;11.07;;;20.50;99.90;;;;;;6161225;23;21030;-86
2023/06/21 05:15:07;;;;;;;13.23;12.00;;;20.50;99.90;;;;;;6161483;23;20454;-86
2023/06/21 05:17:34;;;;;;;13.10;12.07;;;20.40;99.90;;;;;;6162144;23;20434;-85
2023/06/21 05:20:03;;;;;;;12.97;11.87;;;20.30;99.90;;;;;;6157646;23;20467;-86
2023/06/21 05:22:30;;;;;;;12.90;11.80;;;20.30;99.90;;;;;;6161753;23;20484;-86
2023/06/21 05:24:57;;;;;;;13.30;12.10;;;20.40;99.90;;;;;;6163740;23;20522;-86
2023/06/21 05:27:24;;;;;;;13.50;12.43;;;20.30;99.90;;;;;;6173525;23;20779;-86
2023/06/21 05:29:51;;;;;;;13.37;12.17;;;20.10;99.90;;;;;;6150638;23;20543;-86
2023/06/21 05:32:20;;;;;;;15.90;14.57;;;20.00;99.90;;;;;;6161898;23;20447;-86
2023/06/21 05:34:47;;;;;;;14.63;13.43;;;20.00;99.90;;;;;;6158250;23;20434;-86
2023/06/21 05:37:14;;;;;;;15.13;13.80;;;20.00;99.90;;;;;;6169952;23;20952;-86
2023/06/21 05:39:44;;;;;;;16.07;14.77;;;19.90;99.90;;;;;;6172771;23;20777;-86
2023/06/21 05:42:11;;;;;;;15.80;14.50;;;19.90;99.90;;;;;;6160207;23;20551;-86
2023/06/21 05:44:38;;;;;;;16.97;15.53;;;19.90;99.90;;;;;;6158719;23;20481;-86
2023/06/21 05:47:07;;;;;;;17.13;15.80;;;19.90;99.90;;;;;;6168782;23;20436;-85
2023/06/21 05:49:35;;;;;;;16.23;14.93;;;19.90;99.90;;;;;;6167283;23;20461;-85
2023/06/21 05:52:02;;;;;;;15.00;13.87;;;20.00;99.90;;;;;;6169490;23;20954;-85
2023/06/21 05:54:30;;;;;;;13.87;12.63;;;20.10;99.90;;;;;;6188369;23;20540;-86
2023/06/21 05:56:58;;;;;;;14.27;13.07;;;20.10;99.90;;;;;;6176731;23;21161;-90
2023/06/21 05:59:24;;;;;;;15.30;13.90;;;20.20;99.90;;;;;;6169015;23;20499;-85
2023/06/21 06:01:52;;;;;;;13.57;12.27;;;20.30;99.90;;;;;;6160334;23;20459;-86
2023/06/21 06:04:19;;;;;;;15.27;13.97;;;20.40;99.90;;;;;;6164294;23;20524;-85
2023/06/21 06:06:47;;;;;;;14.30;13.03;;;20.40;99.90;;;;;;6152503;23;20478;-85
2023/06/21 06:09:14;;;;;;;15.83;14.37;;;20.40;99.90;;;;;;6157934;23;20768;-85
2023/06/21 06:11:41;;;;;;;13.43;12.43;;;20.40;99.90;;;;;;6155788;23;20536;-85
2023/06/21 06:14:10;;;;;;;14.50;13.30;;;20.40;99.90;;;;;;6166892;23;20866;-85
2023/06/21 06:16:39;;;;;;;14.07;12.90;;;20.50;99.90;;;;;;6166832;23;21065;-85
2023/06/21 06:19:06;;;;;;;14.73;13.53;;;20.60;99.90;;;;;;6178771;23;20510;-84
2023/06/21 06:21:33;;;;;;;14.10;12.80;;;20.80;99.90;;;;;;6170320;23;20545;-84
2023/06/21 06:24:02;;;;;;;13.40;12.23;;;20.90;99.90;;;;;;6167310;23;20441;-77
2023/06/21 06:26:29;;;;;;;12.73;11.63;;;21.00;99.90;;;;;;6164758;23;20461;-80
2023/06/21 06:28:57;;;;;;;12.90;11.90;;;21.10;99.90;;;;;;6167261;23;20506;-80
2023/06/21 06:31:25;;;;;;;12.10;11.00;;;21.20;99.90;;;;;;6161024;23;20495;-80
2023/06/21 06:33:53;;;;;;;10.97;10.07;;;21.50;99.90;;;;;;6161472;23;20460;-80
2023/06/21 06:36:20;;;;;;;10.63;9.80;;;21.60;99.90;;;;;;6166047;23;20433;-80
2023/06/21 06:38:47;;;;;;;12.20;11.20;;;21.80;99.90;;;;;;6151410;23;21272;-80
2023/06/21 06:41:16;;;;;;;12.40;11.40;;;21.80;99.90;;;;;;6162156;23;20982;-80
2023/06/21 06:43:43;;;;;;;12.03;10.80;;;21.90;99.90;;;;;;6165365;23;20485;-80
2023/06/21 06:46:10;;;;;;;14.40;13.10;;;21.90;99.90;;;;;;6138161;23;20440;-80
2023/06/21 06:48:37;;;;;;;11.90;11.00;;;21.90;99.90;;;;;;6139259;23;20520;-80
2023/06/21 06:51:04;;;;;;;13.47;12.37;;;21.90;99.90;;;;;;6151086;23;20493;-80
2023/06/21 06:53:32;;;;;;;13.90;12.90;;;22.00;99.90;;;;;;6160082;23;20520;-80
2023/06/21 06:55:59;;;;;;;11.73;10.83;;;22.00;99.90;;;;;;6164781;23;20980;-80
2023/06/21 06:58:28;;;;;;;12.03;11.03;;;22.10;99.90;;;;;;6148387;23;20787;-80
2023/06/21 07:00:55;;;;;;;11.23;10.13;;;22.10;99.90;;;;;;6153760;23;20562;-80
2023/06/21 07:03:22;;;;;;;11.80;10.87;;;22.30;99.90;;;;;;6170065;23;20436;-81
2023/06/21 07:05:50;;;;;;;12.00;11.00;;;22.40;99.90;;;;;;6169449;23;20858;-80
2023/06/21 07:08:17;;;;;;;12.00;10.90;;;22.50;99.90;;;;;;6162131;23;20515;-80
2023/06/21 07:10:44;;;;;;;10.60;9.80;;;22.50;99.90;;;;;;6161124;23;21044;-81
2023/06/21 07:13:11;;;;;;;11.43;10.43;;;22.60;99.90;;;;;;6156001;23;20429;-80
2023/06/21 07:15:40;;;;;;;13.23;12.03;;;22.60;99.90;;;;;;6155213;23;20961;-81
2023/06/21 07:18:07;;;;;;;12.00;10.80;;;22.60;99.90;;;;;;6165461;23;20927;-81
2023/06/21 07:20:34;;;;;;;11.10;10.00;;;22.70;99.90;;;;;;6173978;23;20443;-80
2023/06/21 07:23:01;;;;;;;11.03;10.07;;;22.90;99.90;;;;;;6164147;23;20441;-81
2023/06/21 07:25:28;;;;;;;12.00;10.93;;;23.00;99.90;;;;;;6159890;23;20428;-81
2023/06/21 07:27:55;;;;;;;9.97;9.17;;;23.30;99.90;;;;;;6165302;23;20447;-81
2023/06/21 07:30:23;;;;;;;10.80;9.83;;;23.50;99.90;;;;;;6163223;23;20465;-81
2023/06/21 07:32:52;;;;;;;10.00;9.10;;;23.90;99.90;;;;;;6140530;23;20437;-81
2023/06/21 07:35:19;;;;;;;7.90;7.20;;;24.20;99.90;;;;;;6134287;23;21075;-82
2023/06/21 07:37:46;;;;;;;7.00;6.30;;;24.40;99.90;;;;;;6140776;23;21202;-81
2023/06/21 07:40:14;;;;;;;6.60;6.00;;;24.50;99.90;;;;;;6133029;23;20512;-81
2023/06/21 07:42:41;;;;;;;6.47;5.93;;;24.60;99.90;;;;;;6150766;23;20469;-81
2023/06/21 07:45:10;;;;;;;5.53;5.03;;;24.70;99.90;;;;;;6165145;23;20653;-82
2023/06/21 07:47:37;;;;;;;5.20;4.70;;;24.80;99.90;;;;;;6159503;23;20965;-82
2023/06/21 07:50:06;;;;;;;5.27;4.77;;;25.00;99.90;;;;;;6159618;23;20483;-82
2023/06/21 07:52:34;;;;;;;4.90;4.50;;;25.10;99.90;;;;;;6165416;23;20480;-82
2023/06/21 07:55:01;;;;;;;4.90;4.40;;;25.20;99.90;;;;;;6169015;23;21000;-83
2023/06/21 07:57:28;;;;;;;4.77;4.37;;;25.30;99.90;;;;;;6159602;23;20502;-83
2023/06/21 07:59:58;;;;;;;5.00;4.37;;;25.40;99.90;;;;;;6158166;23;20990;-83
2023/06/21 08:02:25;;;;;;;6.90;4.90;;;25.40;99.90;;;;;;6161545;23;20787;-83
2023/06/21 08:04:52;;;;;;;7.67;4.57;;;25.30;99.90;;;;;;6164849;23;20437;-83
2023/06/21 08:07:21;;;;;;;6.57;4.83;;;25.40;99.90;;;;;;6141742;23;20578;-83
2023/06/21 08:09:48;;;;;;;5.90;4.43;;;25.50;99.90;;;;;;6166787;23;20458;-83
2023/06/21 08:12:15;;;;;;;5.20;4.70;;;25.70;99.90;;;;;;6155705;23;20448;-82
2023/06/21 08:14:42;;;;;;;4.50;4.10;;;25.70;99.90;;;;;;6159664;23;20516;-82
2023/06/21 08:17:09;;;;;;;4.47;4.00;;;25.70;99.90;;;;;;6171615;23;20439;-82
2023/06/21 08:19:37;;;;;;;4.60;3.97;;;25.60;99.90;;;;;;6160384;23;20496;-83
2023/06/21 08:22:05;;;;;;;4.73;4.20;;;25.40;99.90;;;;;;6155086;23;20520;-84
2023/06/21 08:24:34;;;;;;;3.57;3.27;;;25.40;99.90;;;;;;6161739;23;20523;-83
2023/06/21 08:27:01;;;;;;;3.83;3.53;;;25.40;99.90;;;;;;6162820;23;21007;-83
2023/06/21 08:29:28;;;;;;;3.80;3.50;;;25.40;99.90;;;;;;6159427;23;20432;-82
2023/06/21 08:31:55;;;;;;;4.00;3.70;;;25.20;99.90;;;;;;6156996;23;20627;-83
2023/06/21 08:34:22;;;;;;;3.20;2.90;;;25.20;99.90;;;;;;6162410;23;20493;-83
2023/06/21 08:36:49;;;;;;;4.00;3.63;;;25.10;99.90;;;;;;6161888;23;20434;-83
2023/06/21 08:39:17;;;;;;;4.23;3.93;;;24.90;99.90;;;;;;6156374;23;20436;-83
2023/06/21 08:41:47;;;;;;;4.10;3.70;;;24.70;99.90;;;;;;6151714;23;20961;-82
2023/06/21 08:44:14;;;;;;;3.63;3.33;;;24.60;99.90;;;;;;6161332;23;20456;-83
2023/06/21 08:46:43;;;;;;;4.30;3.90;;;24.60;99.90;;;;;;6155786;23;21781;-83
2023/06/21 08:49:17;;;;;;;5.20;3.90;;;24.60;99.90;;;;;;6152300;23;20443;-83
2023/06/21 08:51:46;;;;;;;4.13;3.70;;;24.50;99.90;;;;;;6157018;23;20492;-83
2023/06/21 08:54:14;;;;;;;5.90;4.03;;;24.50;99.90;;;;;;6167709;23;20441;-83
2023/06/21 08:56:47;;;;;;;4.23;3.90;;;24.50;99.90;;;;;;6168730;23;20438;-83
2023/06/21 08:59:22;;;;;;;5.50;4.20;;;24.40;99.90;;;;;;6172200;23;20440;-83
2023/06/21 09:01:57;;;;;;;4.63;4.23;;;24.20;99.90;;;;;;6162282;23;20811;-83
2023/06/21 09:04:28;;;;;;;7.77;4.20;;;24.00;99.90;;;;;;6177845;23;20510;-83
2023/06/21 09:06:56;;;;;;;5.23;4.73;;;23.90;99.90;;;;;;6167641;23;20505;-83
2023/06/21 09:09:24;;;;;;;5.00;4.50;;;23.80;99.90;;;;;;6159022;23;20436;-83
2023/06/21 09:11:54;;;;;;;5.20;4.47;;;23.80;99.90;;;;;;6162730;23;20466;-83
2023/06/21 09:14:22;;;;;;;5.27;4.77;;;23.80;99.90;;;;;;6162294;23;20527;-83
2023/06/21 09:16:50;;;;;;;4.60;4.00;;;23.80;99.90;;;;;;6146936;23;20444;-82
2023/06/21 09:19:17;;;;;;;4.80;4.40;;;23.70;99.90;;;;;;6162011;23;20420;-81
2023/06/21 09:21:45;;;;;;;4.50;4.10;;;23.60;99.90;;;;;;6169688;23;20534;-81
2023/06/21 09:24:12;;;;;;;6.57;5.03;;;23.60;99.90;;;;;;6164312;23;20939;-81
2023/06/21 09:26:39;;;;;;;4.73;4.33;;;23.60;99.90;;;;;;6166565;23;20471;-81
2023/06/21 09:29:08;;;;;;;5.13;4.40;;;23.60;99.90;;;;;;6170276;23;20484;-82
2023/06/21 09:31:35;;;;;;;5.07;4.50;;;23.50;99.90;;;;;;6170883;23;20490;-82
2023/06/21 09:34:02;;;;;;;5.60;4.70;;;23.50;99.90;;;;;;6165506;23;20455;-82
2023/06/21 09:36:29;;;;;;;4.43;4.03;;;23.50;99.90;;;;;;6163320;23;20444;-82
2023/06/21 09:39:08;;;;;;;4.60;4.20;;;23.40;99.90;;;;;;6169945;23;20922;-82
2023/06/21 09:41:35;;;;;;;5.50;4.30;;;23.30;99.90;;;;;;6164425;23;20495;-83
2023/06/21 09:44:03;;;;;;;7.63;4.43;;;23.20;99.90;;;;;;6171546;23;20514;-82
2023/06/21 09:46:31;;;;;;;5.27;4.40;;;23.20;99.90;;;;;;6163250;23;20424;-82
2023/06/21 09:49:07;;;;;;;4.70;4.17;;;23.10;99.90;;;;;;6166220;23;20431;-82
2023/06/21 09:51:41;;;;;;;5.63;4.80;;;23.00;99.90;;;;;;6168440;23;20467;-82
2023/06/21 09:54:09;;;;;;;5.30;4.67;;;23.00;99.90;;;;;;6168632;23;20867;-83
2023/06/21 09:56:37;;;;;;;5.40;4.80;;;22.90;99.90;;;;;;6172466;23;20776;-83
2023/06/21 09:59:04;;;;;;;4.70;4.30;;;22.90;99.90;;;;;;6171273;23;20427;-84
2023/06/21 10:01:39;;;;;;;7.10;5.67;;;22.90;99.90;;;;;;6149553;23;20459;-83
2023/06/21 10:04:11;;;;;;;5.77;4.90;;;22.80;99.90;;;;;;6152392;23;20467;-84
2023/06/21 10:06:38;;;;;;;5.73;5.23;;;22.70;99.90;;;;;;6151181;23;20474;-83
2023/06/21 10:09:14;;;;;;;5.00;4.60;;;22.60;99.90;;;;;;6141585;23;20437;-83
2023/06/21 10:11:43;;;;;;;5.57;5.07;;;22.60;99.90;;;;;;6134990;23;20471;-83
2023/06/21 10:14:18;;;;;;;5.23;4.73;;;22.50;99.90;;;;;;6144014;23;20467;-83
2023/06/21 10:16:52;;;;;;;5.87;5.33;;;22.40;99.90;;;;;;6150035;23;20513;-84
2023/06/21 10:19:22;;;;;;;6.63;5.67;;;22.30;99.90;;;;;;6145550;23;20425;-83
2023/06/21 10:21:52;;;;;;;5.77;5.17;;;22.20;99.90;;;;;;6146855;23;20690;-83
2023/06/21 10:24:22;;;;;;;6.03;5.37;;;22.10;99.90;;;;;;6148241;23;21474;-83
2023/06/21 10:26:50;;;;;;;7.03;5.23;;;22.00;99.90;;;;;;6135256;23;21685;-83
2023/06/21 10:29:20;;;;;;;5.50;4.80;;;21.90;99.90;;;;;;6151276;23;20982;-83
2023/06/21 10:31:50;;;;;;;6.70;5.03;;;21.90;99.90;;;;;;6160861;23;20470;-82
2023/06/21 10:34:22;;;;;;;5.13;4.63;;;21.80;99.90;;;;;;6147834;23;20435;-83
2023/06/21 10:36:55;;;;;;;6.23;4.50;;;21.80;99.90;;;;;;6147417;23;20435;-83
2023/06/21 10:39:25;;;;;;;5.10;4.70;;;21.80;99.90;;;;;;6153532;23;20440;-83
2023/06/21 10:41:53;;;;;;;7.20;5.63;;;21.80;99.90;;;;;;6137064;23;21204;-83
2023/06/21 10:44:21;;;;;;;5.83;4.80;;;21.50;99.90;;;;;;6167312;23;20757;-84
2023/06/21 10:46:51;;;;;;;5.00;4.50;;;21.70;99.90;;;;;;6146816;23;20440;-83
2023/06/21 10:49:18;;;;;;;4.77;4.37;;;21.80;99.90;;;;;;6150856;23;20429;-83
2023/06/21 10:51:47;;;;;;;4.73;4.33;;;21.90;99.90;;;;;;6165589;23;20463;-82
2023/06/21 10:54:16;;;;;;;5.63;4.70;;;22.00;99.90;;;;;;6140470;23;20447;-82
2023/06/21 10:56:44;;;;;;;5.23;4.60;;;22.10;99.90;;;;;;6156591;23;20433;-81
2023/06/21 10:59:12;;;;;;;4.80;4.40;;;22.30;99.90;;;;;;6157796;23;20923;-81
2023/06/21 11:01:39;;;;;;;6.20;4.53;;;22.50;99.90;;;;;;6172472;23;20463;-81
2023/06/21 11:04:07;;;;;;;4.97;4.43;;;22.60;99.90;;;;;;6173528;23;20950;-81
2023/06/21 11:06:37;;;;;;;6.00;5.17;;;22.80;99.90;;;;;;6166413;23;20524;-81
2023/06/21 11:09:10;;;;;;;6.30;4.80;;;23.00;99.90;;;;;;6166786;23;20945;-81
2023/06/21 11:11:37;;;;;;;4.60;4.17;;;23.10;99.90;;;;;;6160810;23;20464;-81
2023/06/21 11:14:05;;;;;;;5.67;5.13;;;23.30;99.90;;;;;;6164966;23;20440;-81
2023/06/21 11:16:35;;;;;;;4.90;4.50;;;23.40;99.90;;;;;;6164173;23;20429;-81
2023/06/21 11:19:04;;;;;;;6.63;4.67;;;23.60;99.90;;;;;;6150776;23;20424;-81
2023/06/21 11:21:42;;;;;;;6.23;4.67;;;23.70;99.90;;;;;;6156542;23;20681;-81
2023/06/21 11:24:10;;;;;;;5.23;4.63;;;23.80;99.90;;;;;;6142956;23;20431;-81
2023/06/21 11:26:54;;;;;;;5.70;5.20;;;23.80;99.90;;;;;;6149181;23;20577;-81
2023/06/21 11:29:22;;;;;;;4.97;4.57;;;23.70;99.90;;;;;;6145869;23;20855;-81
2023/06/21 11:31:49;;;;;;;5.77;5.27;;;23.70;99.90;;;;;;6142222;23;20471;-81
2023/06/21 11:34:29;;;;;;;5.17;4.70;;;24.00;99.90;;;;;;6153801;23;20453;-81
2023/06/21 11:36:58;;;;;;;5.73;5.10;;;24.30;99.90;;;;;;6148409;23;20455;-80
2023/06/21 11:39:26;;;;;;;5.63;5.03;;;24.70;99.90;;;;;;6150055;23;20458;-80
2023/06/21 11:42:00;;;;;;;5.67;4.60;;;25.20;99.90;;;;;;6161124;23;20437;-80
2023/06/21 11:44:33;;;;;;;5.47;5.00;;;25.60;99.90;;;;;;6157305;23;20446;-81
2023/06/21 11:47:19;;;;;;;4.37;4.07;;;26.00;99.90;;;;;;6163774;23;20428;-80
2023/06/21 11:50:01;;;;;;;5.20;4.33;;;26.50;99.90;;;;;;6154077;23;20511;-78
2023/06/21 11:52:35;;;;;;;5.40;4.90;;;26.80;99.90;;;;;;6148701;23;20658;-77
2023/06/21 11:55:17;;;;;;;5.10;4.67;;;27.20;99.90;;;;;;6165168;23;20431;-77
2023/06/21 11:57:46;;;;;;;6.73;5.10;;;27.60;99.90;;;;;;6164514;23;20435;-77
2023/06/21 12:00:14;;;;;;;5.40;4.70;;;27.90;99.90;;;;;;6134855;23;21747;-77
2023/06/21 12:02:42;;;;;;;4.97;4.50;;;28.30;99.90;;;;;;6128385;23;20436;-78
2023/06/21 12:05:09;;;;;;;4.50;4.10;;;28.70;99.90;;;;;;6158445;23;20477;-78
2023/06/21 12:07:38;;;;;;;4.80;4.30;;;29.30;99.90;;;;;;6147591;23;20435;-78
2023/06/21 12:10:05;;;;;;;4.27;3.93;;;30.00;99.90;;;;;;6153954;23;20448;-80
2023/06/21 12:12:33;;;;;;;7.80;7.20;;;30.50;99.90;;;;;;6153531;23;21819;-83
2023/06/21 12:15:01;;;;;;;7.20;6.40;;;30.70;99.90;;;;;;6152307;23;20441;-83
2023/06/21 12:17:28;;;;;;;6.67;6.17;;;30.60;99.90;;;;;;6145745;23;20427;-86
2023/06/21 12:20:02;;;;;;;7.30;6.70;;;30.80;99.90;;;;;;6175024;23;20463;-84
2023/06/21 12:22:29;;;;;;;6.20;5.70;;;30.90;99.90;;;;;;6143121;23;21043;-84
2023/06/21 12:24:58;;;;;;;6.83;6.40;;;30.70;99.90;;;;;;6160773;23;21194;-84
2023/06/21 12:27:25;;;;;;;6.93;6.33;;;30.70;99.90;;;;;;6157852;23;21506;-84
2023/06/21 12:29:52;;;;;;;6.77;5.37;;;30.80;99.90;;;;;;6136383;23;20463;-84
2023/06/21 12:32:20;;;;;;;6.70;6.10;;;30.70;99.90;;;;;;6160050;23;20460;-84
2023/06/21 12:34:48;;;;;;;6.43;5.93;;;30.90;99.90;;;;;;6166166;23;20441;-84
2023/06/21 12:37:20;;;;;;;7.70;7.10;;;30.40;99.90;;;;;;6167570;23;20428;-83
2023/06/21 12:39:53;;;;;;;5.77;5.27;;;29.70;99.90;;;;;;6136476;23;20588;-83
2023/06/21 12:42:29;;;;;;;7.60;6.10;;;28.90;99.90;;;;;;6163151;23;20464;-83